createdAt,value
2022-08-17T00:00:34.312Z,65.08
2022-08-17T00:03:09.993Z,65.53
2022-08-17T00:05:41.507Z,65.82
2022-08-17T00:08:09.543Z,65.76
2022-08-17T00:10:39.483Z,66.03
2022-08-17T00:13:09.520Z,65.93
2022-08-17T00:15:37.918Z,65.62
2022-08-17T00:19:06.236Z,65.77
2022-08-17T00:20:54.620Z,66.33
2022-08-17T00:23:22.449Z,66.17
2022-08-17T00:25:52.514Z,66.47
2022-08-17T00:28:21.606Z,66.52
2022-08-17T00:30:52.914Z,66.64
2022-08-17T00:33:24.151Z,66.74
2022-08-17T00:35:52.189Z,66.44
2022-08-17T00:38:20.734Z,65.95
2022-08-17T00:40:52.694Z,66.41
2022-08-17T00:43:30.002Z,66.22
2022-08-17T00:45:58.975Z,66.46
2022-08-17T00:48:30.182Z,66.99
2022-08-17T00:51:10.476Z,67.24
2022-08-17T00:53:42.207Z,66.39
2022-08-17T00:56:20.957Z,65.91
2022-08-17T00:58:50.436Z,66.59
2022-08-17T01:01:21.236Z,66.45
2022-08-17T01:03:51.402Z,66.64
2022-08-17T01:06:19.363Z,66.85
2022-08-17T01:08:47.650Z,66.73
2022-08-17T01:11:17.177Z,66.69
2022-08-17T01:13:45.335Z,66.87
2022-08-17T01:16:19.063Z,67.17
2022-08-17T01:18:49.959Z,67.97
2022-08-17T01:21:25.744Z,67.65
2022-08-17T01:23:54.926Z,67.77
2022-08-17T01:26:23.855Z,67.75
2022-08-17T01:28:55.416Z,67.83
2022-08-17T01:31:25.178Z,67.65
2022-08-17T01:33:53.239Z,67.29
2022-08-17T01:36:21.342Z,67.90
2022-08-17T01:38:49.157Z,67.93
2022-08-17T01:41:20.386Z,67.87
2022-08-17T01:43:52.317Z,68.14
2022-08-17T01:46:23.658Z,68.06
2022-08-17T01:48:51.643Z,68.30
2022-08-17T01:51:20.484Z,68.37
2022-08-17T01:53:51.444Z,68.53
2022-08-17T01:56:24.303Z,67.93
2022-08-17T01:58:53.286Z,68.17
2022-08-17T02:01:24.582Z,68.45
2022-08-17T02:03:59.253Z,68.28
2022-08-17T02:06:30.496Z,68.56
2022-08-17T02:09:02.213Z,69.31
2022-08-17T02:11:34.194Z,69.41
2022-08-17T02:14:04.061Z,69.39
2022-08-17T02:16:36.711Z,69.54
2022-08-17T02:19:07.508Z,69.90
2022-08-17T02:21:36.452Z,69.83
2022-08-17T02:24:05.843Z,69.97
2022-08-17T02:26:35.094Z,70.06
2022-08-17T02:29:03.976Z,69.91
2022-08-17T02:31:32.347Z,70.24
2022-08-17T02:34:04.394Z,70.18
2022-08-17T02:36:33.986Z,70.13
2022-08-17T02:39:02.506Z,70.13
2022-08-17T02:41:30.402Z,70.12
2022-08-17T02:43:59.605Z,69.83
2022-08-17T02:46:28.277Z,70.11
2022-08-17T02:48:56.264Z,70.45
2022-08-17T02:51:24.055Z,70.06
2022-08-17T02:53:51.902Z,70.21
2022-08-17T02:56:19.831Z,70.19
2022-08-17T02:58:47.697Z,70.08
2022-08-17T03:01:17.064Z,69.98
2022-08-17T03:03:45.090Z,70.33
2022-08-17T03:06:12.887Z,70.29
2022-08-17T03:08:40.725Z,70.41
2022-08-17T03:11:08.684Z,70.45
2022-08-17T03:13:36.498Z,70.40
2022-08-17T03:16:04.782Z,70.60
2022-08-17T03:18:33.912Z,70.62
2022-08-17T03:21:04.303Z,70.18
2022-08-17T03:23:33.668Z,70.71
2022-08-17T03:26:01.875Z,70.26
2022-08-17T03:28:30.079Z,70.23
2022-08-17T03:30:57.837Z,70.12
2022-08-17T03:33:25.784Z,69.99
2022-08-17T03:35:54.932Z,69.71
2022-08-17T03:38:23.256Z,70.03
2022-08-17T03:40:57.713Z,69.71
2022-08-17T03:43:31.644Z,68.13
2022-08-17T03:46:28.726Z,67.26
2022-08-17T03:49:24.225Z,67.42
2022-08-17T03:52:11.205Z,67.29
2022-08-17T03:54:56.984Z,67.38
2022-08-17T03:57:25.699Z,67.53
2022-08-17T03:59:53.876Z,67.40
2022-08-17T04:02:25.263Z,66.72
2022-08-17T04:04:53.832Z,66.90
2022-08-17T04:07:25.135Z,67.56
2022-08-17T04:09:53.257Z,67.81
2022-08-17T04:12:23.621Z,68.02
2022-08-17T04:14:54.754Z,67.81
2022-08-17T04:17:25.305Z,68.04
2022-08-17T04:19:53.877Z,68.07
2022-08-17T04:22:31.906Z,68.11
2022-08-17T04:25:06.418Z,68.19
2022-08-17T04:27:34.485Z,67.93
2022-08-17T04:30:02.751Z,67.88
2022-08-17T04:33:00.766Z,67.69
2022-08-17T04:35:21.367Z,66.96
2022-08-17T04:37:51.515Z,67.10
2022-08-17T04:40:38.632Z,67.40
2022-08-17T04:43:09.325Z,67.29
2022-08-17T04:45:40.855Z,67.15
2022-08-17T04:48:34.725Z,67.10
2022-08-17T04:51:09.137Z,66.83
2022-08-17T04:53:38.963Z,67.07
2022-08-17T04:56:07.287Z,66.91
2022-08-17T04:58:35.151Z,66.89
2022-08-17T05:01:03.074Z,67.19
2022-08-17T05:03:31.259Z,67.21
2022-08-17T05:05:59.060Z,66.88
2022-08-17T05:08:27.017Z,67.31
2022-08-17T05:10:56.272Z,67.75
2022-08-17T05:13:26.048Z,68.14
2022-08-17T05:15:57.151Z,68.52
2022-08-17T05:18:25.452Z,68.62
2022-08-17T05:20:54.150Z,68.46
2022-08-17T05:23:24.324Z,68.26
2022-08-17T05:25:55.203Z,68.05
2022-08-17T05:28:28.072Z,67.93
2022-08-17T05:31:01.191Z,67.27
2022-08-17T05:33:31.555Z,66.08
2022-08-17T05:36:00.683Z,64.78
2022-08-17T05:38:30.376Z,63.34
2022-08-17T05:40:59.077Z,62.34
2022-08-17T05:43:31.062Z,61.33
2022-08-17T05:46:03.927Z,59.82
2022-08-17T05:48:40.094Z,58.95
2022-08-17T05:51:38.814Z,58.48
2022-08-17T05:54:16.560Z,58.49
2022-08-17T05:57:07.308Z,58.02
2022-08-17T05:59:49.256Z,58.85
2022-08-17T06:02:25.433Z,59.39
2022-08-17T06:05:11.536Z,58.93
2022-08-17T06:07:49.489Z,58.42
2022-08-17T06:10:29.034Z,58.56
2022-08-17T06:13:10.791Z,58.35
2022-08-17T06:15:54.104Z,58.58
2022-08-17T06:18:25.405Z,58.67
2022-08-17T06:20:57.392Z,57.80
2022-08-17T06:23:31.371Z,57.48
2022-08-17T06:26:05.223Z,57.27
2022-08-17T06:28:39.339Z,57.39
2022-08-17T06:31:16.595Z,57.14
2022-08-17T06:33:45.575Z,56.27
2022-08-17T06:36:24.000Z,56.69
2022-08-17T06:39:04.082Z,56.89
2022-08-17T06:41:41.763Z,55.88
2022-08-17T06:44:42.279Z,56.25
2022-08-17T06:47:11.109Z,56.25
2022-08-17T06:49:49.546Z,56.64
2022-08-17T06:52:43.387Z,56.26
2022-08-17T06:55:19.421Z,56.02
2022-08-17T06:57:51.027Z,55.62
2022-08-17T07:00:22.241Z,55.61
2022-08-17T07:02:57.798Z,55.32
2022-08-17T07:05:27.756Z,54.49
2022-08-17T07:08:04.994Z,55.11
2022-08-17T07:10:38.971Z,54.53
2022-08-17T07:13:25.408Z,55.00
2022-08-17T07:15:57.720Z,55.07
2022-08-17T07:18:33.125Z,54.96
2022-08-17T07:21:11.927Z,55.42
2022-08-17T07:24:04.292Z,55.66
2022-08-17T07:26:32.095Z,55.05
2022-08-17T07:29:02.267Z,55.05
2022-08-17T07:31:33.665Z,55.01
2022-08-17T07:34:08.314Z,54.72
2022-08-17T07:36:36.146Z,53.90
2022-08-17T07:39:06.070Z,53.36
2022-08-17T07:41:58.072Z,52.63
2022-08-17T07:44:27.613Z,52.58
2022-08-17T07:47:13.669Z,52.06
2022-08-17T07:49:46.130Z,51.34
2022-08-17T07:52:51.186Z,50.94
2022-08-17T07:55:40.494Z,51.14
2022-08-17T07:58:09.348Z,50.92
2022-08-17T08:00:37.252Z,50.41
2022-08-17T08:03:16.876Z,50.07
2022-08-17T08:05:56.212Z,50.46
2022-08-17T08:08:34.017Z,50.21
2022-08-17T08:11:07.156Z,50.69
2022-08-17T08:13:40.438Z,50.43
2022-08-17T08:16:30.173Z,51.63
2022-08-17T08:19:02.533Z,51.92
2022-08-17T08:21:43.430Z,52.52
2022-08-17T08:24:34.741Z,52.10
2022-08-17T08:27:15.967Z,52.18
2022-08-17T08:29:53.969Z,52.59
2022-08-17T08:32:34.526Z,55.21
2022-08-17T08:35:06.530Z,55.91
2022-08-17T08:37:47.486Z,53.51
2022-08-17T08:40:33.425Z,53.14
2022-08-17T08:43:16.138Z,53.10
2022-08-17T08:45:56.577Z,53.73
2022-08-17T08:49:00.980Z,56.76
2022-08-17T08:51:46.152Z,58.16
2022-08-17T08:54:28.457Z,57.75
2022-08-17T09:00:05.132Z,56.64
2022-08-17T09:03:08.682Z,56.64
2022-08-17T09:05:52.724Z,56.37
2022-08-17T09:08:31.817Z,59.26
2022-08-17T09:11:06.911Z,60.58
2022-08-17T09:13:44.835Z,60.62
2022-08-17T09:16:17.332Z,61.09
2022-08-17T09:19:02.199Z,60.62
2022-08-17T09:21:47.956Z,58.87
2022-08-17T09:24:24.809Z,58.66
2022-08-17T09:26:59.368Z,56.14
2022-08-17T09:29:35.012Z,57.09
2022-08-17T09:32:05.786Z,54.64
2022-08-17T09:34:38.609Z,53.76
2022-08-17T09:37:20.149Z,54.31
2022-08-17T09:39:56.076Z,53.93
2022-08-17T09:42:31.084Z,53.05
2022-08-17T09:45:10.826Z,53.03
2022-08-17T09:47:45.485Z,52.28
2022-08-17T09:50:20.103Z,52.83
2022-08-17T09:53:08.971Z,49.09
2022-08-17T09:55:49.554Z,50.80
2022-08-17T09:58:25.697Z,49.60
2022-08-17T10:01:04.046Z,49.03
2022-08-17T10:03:52.718Z,50.00
2022-08-17T10:06:25.391Z,47.93
2022-08-17T10:09:06.365Z,50.19
2022-08-17T10:11:54.580Z,49.23
2022-08-17T10:14:36.228Z,47.44
2022-08-17T10:17:11.148Z,46.68
2022-08-17T10:19:44.277Z,46.58
2022-08-17T10:22:37.939Z,45.55
2022-08-17T10:25:37.565Z,46.17
2022-08-17T10:28:19.972Z,44.78
2022-08-17T10:31:10.393Z,45.59
2022-08-17T10:33:55.889Z,43.59
2022-08-17T10:36:30.021Z,43.15
2022-08-17T10:39:10.612Z,43.96
2022-08-17T10:41:42.750Z,43.62
2022-08-17T10:44:40.358Z,44.66
2022-08-17T10:47:14.380Z,47.22
2022-08-17T10:49:47.576Z,46.77
2022-08-17T10:52:52.123Z,45.76
2022-08-17T10:55:21.304Z,46.24
2022-08-17T10:57:51.212Z,46.50
2022-08-17T11:01:12.584Z,46.31
2022-08-17T11:03:54.954Z,45.78
2022-08-17T11:06:32.067Z,45.49
2022-08-17T11:09:28.527Z,47.31
2022-08-17T11:12:21.403Z,47.63
2022-08-17T11:15:00.357Z,48.36
2022-08-17T11:18:15.885Z,49.38
2022-08-17T11:21:20.319Z,48.82
2022-08-17T11:24:15.338Z,48.15
2022-08-17T11:26:48.791Z,48.72
2022-08-17T11:29:24.762Z,49.49
2022-08-17T11:32:02.910Z,48.50
2022-08-17T11:34:33.019Z,47.96
2022-08-17T11:37:21.607Z,47.51
2022-08-17T11:40:12.202Z,44.74
2022-08-17T11:43:03.318Z,45.37
2022-08-17T11:45:51.661Z,45.62
2022-08-17T11:48:50.699Z,44.82
2022-08-17T11:51:34.551Z,45.52
2022-08-17T11:54:32.736Z,45.55
2022-08-17T11:56:55.483Z,44.78
2022-08-17T12:00:00.255Z,43.82
2022-08-17T12:02:47.349Z,42.79
2022-08-17T12:05:30.955Z,42.97
2022-08-17T12:08:08.429Z,44.95
2022-08-17T12:10:49.882Z,44.94
2022-08-17T12:13:19.137Z,44.85
2022-08-17T12:15:50.349Z,43.59
2022-08-17T12:18:24.440Z,43.66
2022-08-17T12:21:26.186Z,43.41
2022-08-17T12:24:00.505Z,43.30
2022-08-17T12:26:33.160Z,44.02
2022-08-17T12:29:03.121Z,42.70
2022-08-17T12:31:36.769Z,43.24
2022-08-17T12:34:05.474Z,42.55
2022-08-17T12:36:34.022Z,42.63
2022-08-17T12:39:12.805Z,42.47
2022-08-17T12:41:47.737Z,42.35
2022-08-17T12:44:20.799Z,41.95
2022-08-17T12:46:55.524Z,41.06
2022-08-17T12:49:30.730Z,42.11
2022-08-17T12:52:05.630Z,42.17
2022-08-17T12:54:41.225Z,40.67
2022-08-17T12:57:14.918Z,40.89
2022-08-17T12:59:46.174Z,40.48
2022-08-17T13:02:22.843Z,40.85
2022-08-17T13:04:51.211Z,40.97
2022-08-17T13:07:30.990Z,41.14
2022-08-17T13:09:59.110Z,40.69
2022-08-17T13:12:30.387Z,40.80
2022-08-17T13:14:58.633Z,39.57
2022-08-17T13:17:30.029Z,39.39
2022-08-17T13:19:58.246Z,39.98
2022-08-17T13:22:28.062Z,39.24
2022-08-17T13:24:58.589Z,39.00
2022-08-17T13:27:29.806Z,39.19
2022-08-17T13:30:00.865Z,38.46
2022-08-17T13:32:43.997Z,38.64
2022-08-17T13:35:50.104Z,38.17
2022-08-17T13:38:40.413Z,38.17
2022-08-17T13:41:08.806Z,38.88
2022-08-17T13:43:50.526Z,38.32
2022-08-17T13:46:21.515Z,38.23
2022-08-17T13:49:00.109Z,38.45
2022-08-17T13:51:34.736Z,38.63
2022-08-17T13:54:07.743Z,39.19
2022-08-17T13:56:47.690Z,38.87
2022-08-17T13:59:36.354Z,38.68
2022-08-17T14:02:18.592Z,38.33
2022-08-17T14:04:49.388Z,37.57
2022-08-17T14:07:29.433Z,36.77
2022-08-17T14:10:01.896Z,37.54
2022-08-17T14:12:32.982Z,37.02
2022-08-17T14:15:02.763Z,37.29
2022-08-17T14:17:35.072Z,35.60
2022-08-17T14:20:07.732Z,34.03
2022-08-17T14:22:38.101Z,31.95
2022-08-17T14:25:10.321Z,31.09
2022-08-17T14:27:51.736Z,29.56
2022-08-17T14:30:25.023Z,27.12
2022-08-17T14:32:53.638Z,23.97
2022-08-17T14:35:23.735Z,22.43
2022-08-17T14:37:52.646Z,23.92
2022-08-17T14:40:24.572Z,22.92
2022-08-17T14:42:55.017Z,22.38
2022-08-17T14:45:30.293Z,21.96
2022-08-17T14:48:02.647Z,23.01
2022-08-17T14:50:30.497Z,24.60
2022-08-17T14:53:01.421Z,28.34
2022-08-17T14:55:29.732Z,27.97
2022-08-17T14:57:57.589Z,27.30
2022-08-17T15:00:27.070Z,27.54
2022-08-17T15:02:56.554Z,24.73
2022-08-17T15:05:26.820Z,22.49
2022-08-17T15:07:55.695Z,24.47
2022-08-17T15:10:25.851Z,26.55
2022-08-17T15:12:54.411Z,26.93
2022-08-17T15:15:22.239Z,28.79
2022-08-17T15:17:52.168Z,25.18
2022-08-17T15:20:22.017Z,22.49
2022-08-17T15:22:50.928Z,22.98
2022-08-17T15:25:19.882Z,27.46
2022-08-17T15:27:47.817Z,26.76
2022-08-17T15:30:16.126Z,23.43
2022-08-17T15:32:51.415Z,24.58
2022-08-17T15:35:27.288Z,24.23
2022-08-17T15:37:58.200Z,28.21
2022-08-17T15:40:26.044Z,31.71
2022-08-17T15:42:53.947Z,33.02
2022-08-17T15:45:24.827Z,33.60
2022-08-17T15:47:53.166Z,34.08
2022-08-17T15:50:21.010Z,34.54
2022-08-17T15:52:55.982Z,35.05
2022-08-17T15:55:24.429Z,34.72
2022-08-17T15:57:52.994Z,35.55
2022-08-17T16:00:23.548Z,35.82
2022-08-17T16:03:44.370Z,35.52
2022-08-17T16:05:40.994Z,35.67
2022-08-17T16:08:11.086Z,35.65
2022-08-17T16:10:39.289Z,36.02
2022-08-17T16:13:17.532Z,36.46
2022-08-17T16:15:51.148Z,35.12
2022-08-17T16:18:30.997Z,34.22
2022-08-17T16:21:19.762Z,34.21
2022-08-17T16:23:50.189Z,34.73
2022-08-17T16:26:19.061Z,35.37
2022-08-17T16:28:47.366Z,34.74
2022-08-17T16:31:15.620Z,35.41
2022-08-17T16:34:15.662Z,35.41
2022-08-17T16:36:32.497Z,34.40
2022-08-17T16:39:01.728Z,34.53
2022-08-17T16:41:44.429Z,35.15
2022-08-17T16:44:15.336Z,35.60
2022-08-17T16:46:45.678Z,35.49
2022-08-17T16:49:35.384Z,35.43
2022-08-17T16:52:04.247Z,35.33
2022-08-17T16:54:35.240Z,35.38
2022-08-17T16:57:04.887Z,35.42
2022-08-17T16:59:42.162Z,35.74
2022-08-17T17:02:14.969Z,35.79
2022-08-17T17:04:51.067Z,36.08
2022-08-17T17:07:34.727Z,36.07
2022-08-17T17:10:08.601Z,36.19
2022-08-17T17:13:01.586Z,35.91
2022-08-17T17:15:47.196Z,36.35
2022-08-17T17:18:16.795Z,36.39
2022-08-17T17:20:53.474Z,36.45
2022-08-17T17:23:33.191Z,36.41
2022-08-17T17:26:10.920Z,36.58
2022-08-17T17:28:49.462Z,36.53
2022-08-17T17:31:20.533Z,36.73
2022-08-17T17:33:52.665Z,37.50
2022-08-17T17:36:27.641Z,37.41
2022-08-17T17:39:01.325Z,37.25
2022-08-17T17:41:34.562Z,37.69
2022-08-17T17:44:07.839Z,37.94
2022-08-17T17:46:39.421Z,38.44
2022-08-17T17:49:10.064Z,38.57
2022-08-17T17:52:07.922Z,38.22
2022-08-17T17:54:51.088Z,38.29
2022-08-17T17:57:29.714Z,38.24
2022-08-17T18:00:04.379Z,38.90
2022-08-17T18:02:52.131Z,38.48
2022-08-17T18:05:35.892Z,38.74
2022-08-17T18:08:13.156Z,39.31
2022-08-17T18:10:49.137Z,38.47
2022-08-17T18:13:27.779Z,39.13
2022-08-17T18:16:00.884Z,38.80
2022-08-17T18:18:38.520Z,39.69
2022-08-17T18:21:16.651Z,39.38
2022-08-17T18:23:50.794Z,40.15
2022-08-17T18:26:37.513Z,40.63
2022-08-17T18:29:22.196Z,41.26
2022-08-17T18:31:52.508Z,41.51
2022-08-17T18:37:16.090Z,42.89
2022-08-17T18:39:47.522Z,43.47
2022-08-17T18:42:26.179Z,43.63
2022-08-17T18:44:56.512Z,44.01
2022-08-17T18:47:26.631Z,44.52
2022-08-17T18:49:57.788Z,44.64
2022-08-17T18:52:28.779Z,45.08
2022-08-17T18:55:08.509Z,45.60
2022-08-17T18:57:40.641Z,45.93
2022-08-17T19:00:18.193Z,47.18
2022-08-17T19:02:52.849Z,46.59
2022-08-17T19:05:32.361Z,47.89
2022-08-17T19:08:17.196Z,47.65
2022-08-17T19:10:47.407Z,47.92
2022-08-17T19:13:23.885Z,47.90
2022-08-17T19:16:11.394Z,48.06
2022-08-17T19:18:47.357Z,48.10
2022-08-17T19:21:21.174Z,48.31
2022-08-17T19:23:54.585Z,48.56
2022-08-17T19:26:54.572Z,48.31
2022-08-17T19:29:19.567Z,48.08
2022-08-17T19:31:52.762Z,48.15
2022-08-17T19:34:33.598Z,48.33
2022-08-17T19:37:08.903Z,48.85
2022-08-17T19:39:47.991Z,48.99
2022-08-17T19:42:28.323Z,49.53
2022-08-17T19:45:04.392Z,50.37
2022-08-17T19:47:54.792Z,50.24
2022-08-17T19:50:41.019Z,50.23
2022-08-17T19:53:21.201Z,49.64
2022-08-17T19:55:57.322Z,49.73
2022-08-17T19:58:39.135Z,50.44
2022-08-17T20:01:13.828Z,49.82
2022-08-17T20:03:52.077Z,49.43
2022-08-17T20:06:22.416Z,50.23
2022-08-17T20:08:58.482Z,51.86
2022-08-17T20:11:33.876Z,52.44
2022-08-17T20:14:07.827Z,52.86
2022-08-17T20:16:35.702Z,53.56
2022-08-17T20:19:08.980Z,53.46
2022-08-17T20:21:41.635Z,53.92
2022-08-17T20:24:20.894Z,54.59
2022-08-17T20:26:58.121Z,54.03
2022-08-17T20:29:39.640Z,54.66
2022-08-17T20:32:19.707Z,54.41
2022-08-17T20:34:49.466Z,55.23
2022-08-17T20:37:30.787Z,55.68
2022-08-17T20:40:31.006Z,55.83
2022-08-17T20:42:59.839Z,56.07
2022-08-17T20:46:03.553Z,56.10
2022-08-17T20:48:39.475Z,57.18
2022-08-17T20:51:19.005Z,57.73
2022-08-17T20:54:28.695Z,57.85
2022-08-17T20:56:58.647Z,57.53
2022-08-17T20:59:56.204Z,57.62
2022-08-17T21:02:26.561Z,57.36
2022-08-17T21:05:21.594Z,57.68
2022-08-17T21:07:59.571Z,57.70
2022-08-17T21:10:37.971Z,57.78
2022-08-17T21:13:30.210Z,57.91
2022-08-17T21:16:01.818Z,58.56
2022-08-17T21:18:38.758Z,58.13
2022-08-17T21:21:22.122Z,56.42
2022-08-17T21:24:11.998Z,56.35
2022-08-17T21:26:53.707Z,55.70
2022-08-17T21:29:30.943Z,54.96
2022-08-17T21:32:24.154Z,54.86
2022-08-17T21:35:26.677Z,55.45
2022-08-17T21:38:02.327Z,54.51
2022-08-17T21:40:34.758Z,55.02
2022-08-17T21:43:17.915Z,54.86
2022-08-17T21:45:56.580Z,55.90
2022-08-17T21:48:27.088Z,56.32
2022-08-17T21:51:03.641Z,56.79
2022-08-17T21:53:39.560Z,57.63
2022-08-17T21:56:11.063Z,57.68
2022-08-17T21:58:45.394Z,57.97
2022-08-17T22:01:25.514Z,58.13
2022-08-17T22:04:01.342Z,58.38
2022-08-17T22:06:34.546Z,58.04
2022-08-17T22:09:13.041Z,57.24
2022-08-17T22:12:09.029Z,57.03
2022-08-17T22:14:52.154Z,55.73
2022-08-17T22:17:24.056Z,55.00
2022-08-17T22:19:54.998Z,54.80
2022-08-17T22:22:33.469Z,55.26
2022-08-17T22:25:02.941Z,55.34
2022-08-17T22:27:54.330Z,55.38
2022-08-17T22:30:33.014Z,55.82
2022-08-17T22:33:02.789Z,56.06
2022-08-17T22:35:40.437Z,56.14
2022-08-17T22:38:30.084Z,57.00
2022-08-17T22:41:31.889Z,57.22
2022-08-17T22:44:09.837Z,57.31
2022-08-17T22:46:41.974Z,57.89
2022-08-17T22:49:09.833Z,57.63
2022-08-17T22:51:38.199Z,58.60
2022-08-17T22:54:37.254Z,58.94
2022-08-17T22:57:24.069Z,60.00
2022-08-17T22:59:56.067Z,59.77
2022-08-17T23:02:26.518Z,60.61
2022-08-17T23:04:59.246Z,60.39
2022-08-17T23:07:26.993Z,60.67
2022-08-17T23:09:55.332Z,61.00
2022-08-17T23:12:27.321Z,60.67
2022-08-17T23:15:02.222Z,59.94
2022-08-17T23:17:36.914Z,60.42
2022-08-17T23:20:08.529Z,60.38
2022-08-17T23:22:51.973Z,60.42
2022-08-17T23:25:26.973Z,60.12
2022-08-17T23:27:54.879Z,60.49
2022-08-17T23:30:25.359Z,61.33
2022-08-17T23:32:54.209Z,61.89
2022-08-17T23:35:39.198Z,62.27
2022-08-17T23:38:09.875Z,62.73
2022-08-17T23:40:39.391Z,61.41
2022-08-17T23:43:17.622Z,61.15
2022-08-17T23:45:54.909Z,61.64
2022-08-17T23:48:32.508Z,62.88
2022-08-17T23:51:04.218Z,62.55
2022-08-17T23:53:36.646Z,63.17
2022-08-17T23:56:09.466Z,63.23
2022-08-17T23:58:39.114Z,63.95
